sensor_id;sensor_type;location;lat;lon;timestamp;pressure;altitude;pressure_sealevel;temperature;humidity
77869;BME280;67231;59.144;37.934;2023-07-31T00:01:19;99237.97;;;16.17;75.87
77869;BME280;67231;59.144;37.934;2023-07-31T00:03:46;99227.66;;;16.14;75.74
77869;BME280;67231;59.144;37.934;2023-07-31T00:06:12;99227.28;;;16.10;75.76
77869;BME280;67231;59.144;37.934;2023-07-31T00:08:39;99231.38;;;16.06;76.36
77869;BME280;67231;59.144;37.934;2023-07-31T00:11:05;99221.09;;;16.03;76.06
77869;BME280;67231;59.144;37.934;2023-07-31T00:13:31;99227.69;;;16.00;76.36
77869;BME280;67231;59.144;37.934;2023-07-31T00:15:57;99225.00;;;16.00;76.16
77869;BME280;67231;59.144;37.934;2023-07-31T00:18:24;99233.84;;;16.01;76.28
77869;BME280;67231;59.144;37.934;2023-07-31T00:20:50;99233.03;;;16.00;76.17
77869;BME280;67231;59.144;37.934;2023-07-31T00:23:16;99238.41;;;16.00;76.20
77869;BME280;67231;59.144;37.934;2023-07-31T00:25:43;99239.22;;;16.01;76.48
77869;BME280;67231;59.144;37.934;2023-07-31T00:28:09;99235.09;;;15.98;76.58
77869;BME280;67231;59.144;37.934;2023-07-31T00:30:36;99253.19;;;15.96;76.16
77869;BME280;67231;59.144;37.934;2023-07-31T00:33:02;99251.53;;;15.95;76.21
77869;BME280;67231;59.144;37.934;2023-07-31T00:35:29;99244.97;;;15.91;76.26
77869;BME280;67231;59.144;37.934;2023-07-31T00:37:57;99254.44;;;15.87;76.75
77869;BME280;67231;59.144;37.934;2023-07-31T00:40:24;99254.84;;;15.84;76.43
77869;BME280;67231;59.144;37.934;2023-07-31T00:42:50;99256.91;;;15.82;76.87
77869;BME280;67231;59.144;37.934;2023-07-31T00:45:17;99255.69;;;15.78;76.97
77869;BME280;67231;59.144;37.934;2023-07-31T00:47:43;99261.41;;;15.75;77.18
77869;BME280;67231;59.144;37.934;2023-07-31T00:50:09;99265.50;;;15.71;77.19
77869;BME280;67231;59.144;37.934;2023-07-31T00:52:36;99276.63;;;15.68;77.27
77869;BME280;67231;59.144;37.934;2023-07-31T00:55:03;99264.25;;;15.66;77.46
77869;BME280;67231;59.144;37.934;2023-07-31T00:57:32;99269.59;;;15.66;77.27
77869;BME280;67231;59.144;37.934;2023-07-31T01:00:00;99281.97;;;15.68;77.55
77869;BME280;67231;59.144;37.934;2023-07-31T01:02:26;99281.34;;;15.65;77.38
77869;BME280;67231;59.144;37.934;2023-07-31T01:04:53;99277.03;;;15.64;77.81
77869;BME280;67231;59.144;37.934;2023-07-31T01:07:27;99278.88;;;15.64;77.57
77869;BME280;67231;59.144;37.934;2023-07-31T01:10:26;99283.41;;;15.63;77.58
77869;BME280;67231;59.144;37.934;2023-07-31T01:12:53;99278.25;;;15.62;77.57
77869;BME280;67231;59.144;37.934;2023-07-31T01:15:22;99269.41;;;15.61;78.08
77869;BME280;67231;59.144;37.934;2023-07-31T01:17:48;99278.69;;;15.65;77.86
77869;BME280;67231;59.144;37.934;2023-07-31T01:20:21;99277.88;;;15.72;77.79
77869;BME280;67231;59.144;37.934;2023-07-31T01:23:08;99286.31;;;15.75;77.53
77869;BME280;67231;59.144;37.934;2023-07-31T01:28:30;99275.03;;;15.80;77.19
77869;BME280;67231;59.144;37.934;2023-07-31T01:30:59;99279.97;;;15.83;77.22
77869;BME280;67231;59.144;37.934;2023-07-31T01:33:26;99278.31;;;15.82;77.13
77869;BME280;67231;59.144;37.934;2023-07-31T01:35:53;99291.28;;;15.85;77.02
77869;BME280;67231;59.144;37.934;2023-07-31T01:38:21;99282.22;;;15.86;77.20
77869;BME280;67231;59.144;37.934;2023-07-31T01:40:54;99296.84;;;15.90;77.25
77869;BME280;67231;59.144;37.934;2023-07-31T01:43:21;99290.47;;;15.91;76.76
77869;BME280;67231;59.144;37.934;2023-07-31T01:45:47;99287.19;;;15.89;77.38
77869;BME280;67231;59.144;37.934;2023-07-31T01:48:13;99285.53;;;15.88;76.99
77869;BME280;67231;59.144;37.934;2023-07-31T01:50:41;99279.16;;;15.89;77.10
77869;BME280;67231;59.144;37.934;2023-07-31T01:53:07;99272.53;;;15.92;77.38
77869;BME280;67231;59.144;37.934;2023-07-31T01:55:33;99275.41;;;15.97;76.92
77869;BME280;67231;59.144;37.934;2023-07-31T01:58:00;99277.69;;;16.00;76.76
77869;BME280;67231;59.144;37.934;2023-07-31T02:00:26;99270.91;;;16.04;76.48
77869;BME280;67231;59.144;37.934;2023-07-31T02:02:52;99274.41;;;16.05;76.64
77869;BME280;67231;59.144;37.934;2023-07-31T02:05:19;99279.34;;;16.08;76.62
77869;BME280;67231;59.144;37.934;2023-07-31T02:07:46;99273.38;;;16.12;76.49
77869;BME280;67231;59.144;37.934;2023-07-31T02:10:12;99275.22;;;16.18;76.62
77869;BME280;67231;59.144;37.934;2023-07-31T02:12:38;99273.56;;;16.24;75.86
77869;BME280;67231;59.144;37.934;2023-07-31T02:15:05;99280.38;;;16.27;75.92
77869;BME280;67231;59.144;37.934;2023-07-31T02:17:33;99269.03;;;16.31;75.66
77869;BME280;67231;59.144;37.934;2023-07-31T02:20:00;99277.25;;;16.36;75.32
77869;BME280;67231;59.144;37.934;2023-07-31T02:22:26;99272.09;;;16.42;75.18
77869;BME280;67231;59.144;37.934;2023-07-31T02:24:53;99280.97;;;16.49;75.09
77869;BME280;67231;59.144;37.934;2023-07-31T02:27:22;99282.16;;;16.53;74.97
77869;BME280;67231;59.144;37.934;2023-07-31T02:29:54;99277.25;;;16.56;74.75
77869;BME280;67231;59.144;37.934;2023-07-31T02:32:22;99281.94;;;16.61;74.95
77869;BME280;67231;59.144;37.934;2023-07-31T02:34:48;99279.69;;;16.65;74.79
77869;BME280;67231;59.144;37.934;2023-07-31T02:37:15;99289.34;;;16.66;74.79
77869;BME280;67231;59.144;37.934;2023-07-31T02:39:41;99276.81;;;16.66;74.69
77869;BME280;67231;59.144;37.934;2023-07-31T02:42:07;99275.16;;;16.65;74.37
77869;BME280;67231;59.144;37.934;2023-07-31T02:44:34;99270.19;;;16.69;74.58
77869;BME280;67231;59.144;37.934;2023-07-31T02:47:00;99264.00;;;16.68;74.60
77869;BME280;67231;59.144;37.934;2023-07-31T02:49:26;99261.94;;;16.70;74.29
77869;BME280;67231;59.144;37.934;2023-07-31T02:51:52;99257.81;;;16.74;74.26
77869;BME280;67231;59.144;37.934;2023-07-31T02:54:19;99258.81;;;16.80;74.40
77869;BME280;67231;59.144;37.934;2023-07-31T02:56:47;99253.03;;;16.83;74.25
77869;BME280;67231;59.144;37.934;2023-07-31T02:59:14;99260.69;;;16.86;74.12
77869;BME280;67231;59.144;37.934;2023-07-31T03:01:41;99268.47;;;16.95;74.02
77869;BME280;67231;59.144;37.934;2023-07-31T03:04:07;99264.53;;;17.04;74.27
77869;BME280;67231;59.144;37.934;2023-07-31T03:06:33;99267.75;;;17.19;73.62
77869;BME280;67231;59.144;37.934;2023-07-31T03:09:00;99266.47;;;17.28;73.20
77869;BME280;67231;59.144;37.934;2023-07-31T03:11:27;99272.03;;;17.34;73.06
77869;BME280;67231;59.144;37.934;2023-07-31T03:13:53;99263.56;;;17.37;72.94
77869;BME280;67231;59.144;37.934;2023-07-31T03:16:20;99263.94;;;17.40;72.89
77869;BME280;67231;59.144;37.934;2023-07-31T03:18:46;99263.25;;;17.52;72.57
77869;BME280;67231;59.144;37.934;2023-07-31T03:21:13;99264.41;;;17.62;72.09
77869;BME280;67231;59.144;37.934;2023-07-31T03:23:39;99263.31;;;17.70;72.06
77869;BME280;67231;59.144;37.934;2023-07-31T03:26:07;99264.09;;;17.77;71.73
77869;BME280;67231;59.144;37.934;2023-07-31T03:28:33;99269.63;;;17.82;71.62
77869;BME280;67231;59.144;37.934;2023-07-31T03:31:00;99265.13;;;17.76;71.53
77869;BME280;67231;59.144;37.934;2023-07-31T03:33:26;99269.09;;;17.67;71.64
77869;BME280;67231;59.144;37.934;2023-07-31T03:35:52;99268.09;;;17.68;71.97
77869;BME280;67231;59.144;37.934;2023-07-31T03:38:19;99262.13;;;17.66;71.95
77869;BME280;67231;59.144;37.934;2023-07-31T03:40:46;99272.59;;;17.74;71.72
77869;BME280;67231;59.144;37.934;2023-07-31T03:43:12;99276.88;;;17.82;71.71
77869;BME280;67231;59.144;37.934;2023-07-31T03:45:39;99260.53;;;17.90;71.44
77869;BME280;67231;59.144;37.934;2023-07-31T03:48:06;99264.81;;;17.98;70.91
77869;BME280;67231;59.144;37.934;2023-07-31T03:50:33;99266.00;;;18.02;71.04
77869;BME280;67231;59.144;37.934;2023-07-31T03:53:00;99278.09;;;18.11;70.86
77869;BME280;67231;59.144;37.934;2023-07-31T03:55:27;99275.72;;;18.22;70.66
77869;BME280;67231;59.144;37.934;2023-07-31T03:57:53;99276.66;;;18.34;70.24
77869;BME280;67231;59.144;37.934;2023-07-31T04:00:19;99277.56;;;18.46;69.81
77869;BME280;67231;59.144;37.934;2023-07-31T04:02:46;99277.88;;;18.56;69.54
77869;BME280;67231;59.144;37.934;2023-07-31T04:05:13;99274.44;;;18.68;69.19
77869;BME280;67231;59.144;37.934;2023-07-31T04:07:39;99275.00;;;18.77;68.82
77869;BME280;67231;59.144;37.934;2023-07-31T04:10:05;99269.91;;;18.87;68.82
77869;BME280;67231;59.144;37.934;2023-07-31T04:12:32;99267.91;;;19.01;68.53
77869;BME280;67231;59.144;37.934;2023-07-31T04:14:58;99274.00;;;19.08;68.35
77869;BME280;67231;59.144;37.934;2023-07-31T04:17:24;99276.84;;;19.13;68.12
77869;BME280;67231;59.144;37.934;2023-07-31T04:19:51;99279.47;;;19.20;68.00
77869;BME280;67231;59.144;37.934;2023-07-31T04:22:17;99279.50;;;19.32;67.61
77869;BME280;67231;59.144;37.934;2023-07-31T04:24:43;99285.03;;;19.48;67.22
77869;BME280;67231;59.144;37.934;2023-07-31T04:27:10;99285.50;;;19.76;66.30
77869;BME280;67231;59.144;37.934;2023-07-31T04:29:36;99286.38;;;19.88;66.05
77869;BME280;67231;59.144;37.934;2023-07-31T04:32:03;99288.84;;;20.01;65.67
77869;BME280;67231;59.144;37.934;2023-07-31T04:34:29;99297.75;;;20.14;65.59
77869;BME280;67231;59.144;37.934;2023-07-31T04:36:55;99290.75;;;20.36;65.17
77869;BME280;67231;59.144;37.934;2023-07-31T04:39:22;99298.25;;;20.58;64.33
77869;BME280;67231;59.144;37.934;2023-07-31T04:41:48;99293.09;;;20.68;64.17
77869;BME280;67231;59.144;37.934;2023-07-31T04:44:14;99288.75;;;20.67;63.88
77869;BME280;67231;59.144;37.934;2023-07-31T04:46:41;99291.44;;;20.67;63.98
77869;BME280;67231;59.144;37.934;2023-07-31T04:49:07;99286.19;;;20.72;64.07
77869;BME280;67231;59.144;37.934;2023-07-31T04:51:33;99296.03;;;20.79;63.57
77869;BME280;67231;59.144;37.934;2023-07-31T04:54:00;99292.25;;;20.80;63.49
77869;BME280;67231;59.144;37.934;2023-07-31T04:56:26;99296.38;;;20.70;63.62
77869;BME280;67231;59.144;37.934;2023-07-31T04:58:52;99294.75;;;20.69;64.01
77869;BME280;67231;59.144;37.934;2023-07-31T05:01:19;99290.25;;;20.63;64.63
77869;BME280;67231;59.144;37.934;2023-07-31T05:03:45;99294.47;;;20.59;64.11
77869;BME280;67231;59.144;37.934;2023-07-31T05:06:11;99295.06;;;20.49;64.29
77869;BME280;67231;59.144;37.934;2023-07-31T05:08:39;99296.00;;;20.43;64.08
77869;BME280;67231;59.144;37.934;2023-07-31T05:11:06;99292.38;;;20.37;64.39
77869;BME280;67231;59.144;37.934;2023-07-31T05:13:32;99290.16;;;20.34;64.47
77869;BME280;67231;59.144;37.934;2023-07-31T05:15:58;99294.75;;;20.34;64.61
77869;BME280;67231;59.144;37.934;2023-07-31T05:18:24;99296.00;;;20.31;64.59
77869;BME280;67231;59.144;37.934;2023-07-31T05:20:51;99289.59;;;20.32;65.15
77869;BME280;67231;59.144;37.934;2023-07-31T05:23:17;99303.50;;;20.41;64.51
77869;BME280;67231;59.144;37.934;2023-07-31T05:25:43;99305.97;;;20.31;64.69
77869;BME280;67231;59.144;37.934;2023-07-31T05:28:09;99303.63;;;20.23;65.19
77869;BME280;67231;59.144;37.934;2023-07-31T05:30:36;99295.78;;;20.21;64.91
77869;BME280;67231;59.144;37.934;2023-07-31T05:33:02;99299.41;;;20.27;64.77
77869;BME280;67231;59.144;37.934;2023-07-31T05:35:28;99309.47;;;20.31;65.00
77869;BME280;67231;59.144;37.934;2023-07-31T05:37:55;99312.41;;;20.30;64.80
77869;BME280;67231;59.144;37.934;2023-07-31T05:40:21;99312.41;;;20.30;65.12
77869;BME280;67231;59.144;37.934;2023-07-31T05:42:47;99311.00;;;20.27;65.13
77869;BME280;67231;59.144;37.934;2023-07-31T05:45:14;99314.28;;;20.29;65.38
77869;BME280;67231;59.144;37.934;2023-07-31T05:47:41;99316.06;;;20.35;64.84
77869;BME280;67231;59.144;37.934;2023-07-31T05:50:08;99312.28;;;20.36;64.92
77869;BME280;67231;59.144;37.934;2023-07-31T05:52:34;99314.63;;;20.45;64.64
77869;BME280;67231;59.144;37.934;2023-07-31T05:55:01;99322.13;;;20.43;65.03
77869;BME280;67231;59.144;37.934;2023-07-31T05:57:29;99312.16;;;20.43;64.90
77869;BME280;67231;59.144;37.934;2023-07-31T05:59:55;99313.22;;;20.54;64.64
77869;BME280;67231;59.144;37.934;2023-07-31T06:02:22;99308.78;;;20.48;64.83
77869;BME280;67231;59.144;37.934;2023-07-31T06:04:48;99305.16;;;20.54;64.82
77869;BME280;67231;59.144;37.934;2023-07-31T06:07:14;99309.03;;;20.58;64.29
77869;BME280;67231;59.144;37.934;2023-07-31T06:09:41;99314.09;;;20.66;64.32
77869;BME280;67231;59.144;37.934;2023-07-31T06:12:07;99314.66;;;20.68;64.53
77869;BME280;67231;59.144;37.934;2023-07-31T06:14:34;99318.06;;;20.76;64.75
77869;BME280;67231;59.144;37.934;2023-07-31T06:17:00;99318.75;;;20.83;64.38
77869;BME280;67231;59.144;37.934;2023-07-31T06:19:26;99303.50;;;20.88;64.58
77869;BME280;67231;59.144;37.934;2023-07-31T06:21:53;99313.22;;;21.01;63.92
77869;BME280;67231;59.144;37.934;2023-07-31T06:24:19;99303.66;;;21.22;63.35
77869;BME280;67231;59.144;37.934;2023-07-31T06:26:46;99305.03;;;21.25;63.14
77869;BME280;67231;59.144;37.934;2023-07-31T06:29:12;99312.25;;;21.36;62.46
77869;BME280;67231;59.144;37.934;2023-07-31T06:31:40;99302.72;;;21.45;62.49
77869;BME280;67231;59.144;37.934;2023-07-31T06:34:07;99309.97;;;21.57;62.07
77869;BME280;67231;59.144;37.934;2023-07-31T06:36:33;99304.09;;;21.60;61.74
77869;BME280;67231;59.144;37.934;2023-07-31T06:38:59;99312.78;;;21.62;61.72
77869;BME280;67231;59.144;37.934;2023-07-31T06:41:26;99320.34;;;21.77;61.62
77869;BME280;67231;59.144;37.934;2023-07-31T06:43:53;99315.59;;;21.84;61.07
77869;BME280;67231;59.144;37.934;2023-07-31T06:46:19;99317.66;;;21.94;60.86
77869;BME280;67231;59.144;37.934;2023-07-31T06:48:45;99324.97;;;22.10;60.93
77869;BME280;67231;59.144;37.934;2023-07-31T06:51:12;99321.44;;;22.27;60.67
77869;BME280;67231;59.144;37.934;2023-07-31T06:53:38;99323.03;;;22.40;60.24
77869;BME280;67231;59.144;37.934;2023-07-31T06:56:04;99316.72;;;22.34;60.13
77869;BME280;67231;59.144;37.934;2023-07-31T06:58:31;99321.19;;;22.45;60.30
77869;BME280;67231;59.144;37.934;2023-07-31T07:00:57;99316.03;;;22.61;59.91
77869;BME280;67231;59.144;37.934;2023-07-31T07:03:23;99319.84;;;22.65;59.85
77869;BME280;67231;59.144;37.934;2023-07-31T07:05:49;99328.56;;;22.67;59.32
77869;BME280;67231;59.144;37.934;2023-07-31T07:08:15;99322.09;;;22.51;59.29
77869;BME280;67231;59.144;37.934;2023-07-31T07:10:43;99325.31;;;22.48;59.93
77869;BME280;67231;59.144;37.934;2023-07-31T07:13:09;99333.34;;;22.43;59.84
77869;BME280;67231;59.144;37.934;2023-07-31T07:15:36;99329.16;;;22.35;59.78
77869;BME280;67231;59.144;37.934;2023-07-31T07:18:02;99331.16;;;22.28;59.61
77869;BME280;67231;59.144;37.934;2023-07-31T07:20:29;99334.38;;;22.25;59.65
77869;BME280;67231;59.144;37.934;2023-07-31T07:22:55;99333.22;;;22.21;60.16
77869;BME280;67231;59.144;37.934;2023-07-31T07:25:22;99332.19;;;22.22;59.85
77869;BME280;67231;59.144;37.934;2023-07-31T07:27:48;99340.28;;;22.22;59.65
77869;BME280;67231;59.144;37.934;2023-07-31T07:30:14;99338.06;;;22.18;59.63
77869;BME280;67231;59.144;37.934;2023-07-31T07:32:41;99337.28;;;22.35;59.62
77869;BME280;67231;59.144;37.934;2023-07-31T07:35:07;99343.06;;;22.61;59.20
77869;BME280;67231;59.144;37.934;2023-07-31T07:37:33;99344.41;;;22.80;58.42
77869;BME280;67231;59.144;37.934;2023-07-31T07:40:00;99343.31;;;22.98;57.77
77869;BME280;67231;59.144;37.934;2023-07-31T07:42:26;99349.25;;;23.17;57.62
77869;BME280;67231;59.144;37.934;2023-07-31T07:44:52;99346.25;;;23.36;57.32
77869;BME280;67231;59.144;37.934;2023-07-31T07:47:19;99348.09;;;23.57;56.48
77869;BME280;67231;59.144;37.934;2023-07-31T07:49:45;99352.31;;;23.97;56.00
77869;BME280;67231;59.144;37.934;2023-07-31T07:52:11;99353.84;;;24.53;55.07
77869;BME280;67231;59.144;37.934;2023-07-31T07:54:38;99357.66;;;25.58;53.10
77869;BME280;67231;59.144;37.934;2023-07-31T07:57:04;99363.19;;;26.61;51.47
77869;BME280;67231;59.144;37.934;2023-07-31T07:59:30;99362.72;;;27.39;49.71
77869;BME280;67231;59.144;37.934;2023-07-31T08:01:57;99369.69;;;27.61;48.88
77869;BME280;67231;59.144;37.934;2023-07-31T08:04:23;99366.16;;;28.05;48.22
77869;BME280;67231;59.144;37.934;2023-07-31T08:06:49;99373.06;;;27.87;48.13
77869;BME280;67231;59.144;37.934;2023-07-31T08:09:16;99362.50;;;27.80;47.44
77869;BME280;67231;59.144;37.934;2023-07-31T08:11:42;99363.53;;;27.45;47.54
77869;BME280;67231;59.144;37.934;2023-07-31T08:14:09;99373.44;;;27.00;48.21
77869;BME280;67231;59.144;37.934;2023-07-31T08:16:35;99359.38;;;26.62;49.10
77869;BME280;67231;59.144;37.934;2023-07-31T08:19:01;99367.56;;;26.57;49.07
77869;BME280;67231;59.144;37.934;2023-07-31T08:21:27;99373.81;;;26.37;48.84
77869;BME280;67231;59.144;37.934;2023-07-31T08:23:54;99370.81;;;26.07;49.74
77869;BME280;67231;59.144;37.934;2023-07-31T08:26:20;99367.28;;;26.02;49.77
77869;BME280;67231;59.144;37.934;2023-07-31T08:28:47;99373.75;;;25.85;50.07
77869;BME280;67231;59.144;37.934;2023-07-31T08:31:13;99382.22;;;26.14;49.30
77869;BME280;67231;59.144;37.934;2023-07-31T08:33:40;99373.00;;;26.26;49.05
77869;BME280;67231;59.144;37.934;2023-07-31T08:36:06;99377.88;;;26.49;48.64
77869;BME280;67231;59.144;37.934;2023-07-31T08:38:33;99374.63;;;26.52;48.27
77869;BME280;67231;59.144;37.934;2023-07-31T08:40:59;99381.97;;;26.57;48.85
77869;BME280;67231;59.144;37.934;2023-07-31T08:43:26;99377.03;;;26.90;48.31
77869;BME280;67231;59.144;37.934;2023-07-31T08:45:53;99381.09;;;26.93;48.27
77869;BME280;67231;59.144;37.934;2023-07-31T08:48:22;99381.91;;;26.93;48.26
77869;BME280;67231;59.144;37.934;2023-07-31T08:50:54;99392.59;;;26.79;48.04
77869;BME280;67231;59.144;37.934;2023-07-31T08:53:21;99381.94;;;26.62;47.60
77869;BME280;67231;59.144;37.934;2023-07-31T08:55:48;99381.66;;;26.89;47.61
77869;BME280;67231;59.144;37.934;2023-07-31T08:58:15;99379.91;;;27.35;46.33
77869;BME280;67231;59.144;37.934;2023-07-31T09:00:45;99389.63;;;27.51;45.99
77869;BME280;67231;59.144;37.934;2023-07-31T09:03:17;99376.28;;;27.55;46.12
77869;BME280;67231;59.144;37.934;2023-07-31T09:05:45;99378.47;;;27.48;46.55
77869;BME280;67231;59.144;37.934;2023-07-31T09:08:13;99379.78;;;27.60;46.06
77869;BME280;67231;59.144;37.934;2023-07-31T09:10:44;99372.25;;;27.42;45.89
77869;BME280;67231;59.144;37.934;2023-07-31T09:13:16;99377.66;;;27.47;46.49
77869;BME280;67231;59.144;37.934;2023-07-31T09:15:45;99377.38;;;27.49;45.56
77869;BME280;67231;59.144;37.934;2023-07-31T09:18:11;99375.53;;;27.39;46.05
77869;BME280;67231;59.144;37.934;2023-07-31T09:20:38;99381.41;;;27.61;46.17
77869;BME280;67231;59.144;37.934;2023-07-31T09:23:08;99375.16;;;27.56;45.10
77869;BME280;67231;59.144;37.934;2023-07-31T09:25:36;99366.44;;;26.83;45.80
77869;BME280;67231;59.144;37.934;2023-07-31T09:28:07;99367.78;;;26.91;46.00
77869;BME280;67231;59.144;37.934;2023-07-31T09:30:48;99383.53;;;26.99;46.01
77869;BME280;67231;59.144;37.934;2023-07-31T09:33:15;99376.50;;;26.62;46.94
77869;BME280;67231;59.144;37.934;2023-07-31T09:35:42;99377.56;;;26.97;46.90
77869;BME280;67231;59.144;37.934;2023-07-31T09:38:14;99372.19;;;27.52;46.76
77869;BME280;67231;59.144;37.934;2023-07-31T09:40:46;99371.00;;;27.69;45.64
77869;BME280;67231;59.144;37.934;2023-07-31T09:43:17;99375.59;;;27.13;46.43
77869;BME280;67231;59.144;37.934;2023-07-31T09:45:44;99375.69;;;26.87;46.74
77869;BME280;67231;59.144;37.934;2023-07-31T09:48:16;99366.75;;;26.30;46.58
77869;BME280;67231;59.144;37.934;2023-07-31T09:50:48;99376.72;;;25.73;48.59
77869;BME280;67231;59.144;37.934;2023-07-31T09:53:16;99385.34;;;25.55;48.95
77869;BME280;67231;59.144;37.934;2023-07-31T09:55:46;99379.59;;;25.41;48.85
77869;BME280;67231;59.144;37.934;2023-07-31T09:58:12;99375.00;;;25.41;48.84
77869;BME280;67231;59.144;37.934;2023-07-31T10:00:39;99377.44;;;25.43;49.19
77869;BME280;67231;59.144;37.934;2023-07-31T10:03:10;99385.81;;;25.31;48.92
77869;BME280;67231;59.144;37.934;2023-07-31T10:05:43;99376.47;;;25.17;50.00
77869;BME280;67231;59.144;37.934;2023-07-31T10:08:14;99377.41;;;25.33;49.55
77869;BME280;67231;59.144;37.934;2023-07-31T10:10:43;99376.53;;;25.22;49.40
77869;BME280;67231;59.144;37.934;2023-07-31T10:13:10;99373.75;;;25.12;49.32
77869;BME280;67231;59.144;37.934;2023-07-31T10:15:37;99380.03;;;25.17;49.63
77869;BME280;67231;59.144;37.934;2023-07-31T10:18:06;99377.13;;;25.29;49.79
77869;BME280;67231;59.144;37.934;2023-07-31T10:20:33;99380.41;;;25.36;50.28
77869;BME280;67231;59.144;37.934;2023-07-31T10:23:00;99381.22;;;25.32;50.49
77869;BME280;67231;59.144;37.934;2023-07-31T10:25:27;99384.16;;;25.25;50.69
77869;BME280;67231;59.144;37.934;2023-07-31T10:27:54;99386.22;;;25.07;51.10
77869;BME280;67231;59.144;37.934;2023-07-31T10:30:24;99388.56;;;24.88;51.17
77869;BME280;67231;59.144;37.934;2023-07-31T10:32:51;99393.63;;;24.75;51.15
77869;BME280;67231;59.144;37.934;2023-07-31T10:35:20;99397.56;;;24.57;52.21
77869;BME280;67231;59.144;37.934;2023-07-31T10:37:50;99399.59;;;24.77;51.01
77869;BME280;67231;59.144;37.934;2023-07-31T10:40:32;99387.16;;;24.81;50.91
77869;BME280;67231;59.144;37.934;2023-07-31T10:42:59;99389.56;;;24.72;51.03
77869;BME280;67231;59.144;37.934;2023-07-31T10:45:36;99382.38;;;24.98;51.03
77869;BME280;67231;59.144;37.934;2023-07-31T10:48:04;99388.03;;;25.39;50.76
77869;BME280;67231;59.144;37.934;2023-07-31T10:50:55;99383.19;;;25.57;50.51
77869;BME280;67231;59.144;37.934;2023-07-31T10:53:31;99390.31;;;25.78;49.24
77869;BME280;67231;59.144;37.934;2023-07-31T10:56:06;99401.28;;;25.99;49.93
77869;BME280;67231;59.144;37.934;2023-07-31T10:58:34;99393.38;;;25.97;49.38
77869;BME280;67231;59.144;37.934;2023-07-31T11:01:03;99384.41;;;26.12;49.03
77869;BME280;67231;59.144;37.934;2023-07-31T11:03:44;99384.97;;;25.99;49.42
77869;BME280;67231;59.144;37.934;2023-07-31T11:06:10;99394.66;;;25.74;49.44
77869;BME280;67231;59.144;37.934;2023-07-31T11:08:45;99391.03;;;25.43;49.66
77869;BME280;67231;59.144;37.934;2023-07-31T11:11:13;99384.69;;;25.22;49.82
77869;BME280;67231;59.144;37.934;2023-07-31T11:13:50;99383.78;;;25.06;50.21
77869;BME280;67231;59.144;37.934;2023-07-31T11:16:24;99385.72;;;25.16;50.00
77869;BME280;67231;59.144;37.934;2023-07-31T11:18:52;99388.47;;;25.21;49.87
77869;BME280;67231;59.144;37.934;2023-07-31T11:21:21;99398.38;;;24.95;49.93
77869;BME280;67231;59.144;37.934;2023-07-31T11:23:50;99397.56;;;24.57;50.49
77869;BME280;67231;59.144;37.934;2023-07-31T11:26:17;99396.31;;;24.37;50.47
77869;BME280;67231;59.144;37.934;2023-07-31T11:28:47;99398.13;;;24.26;51.43
77869;BME280;67231;59.144;37.934;2023-07-31T11:31:14;99400.31;;;24.29;51.67
77869;BME280;67231;59.144;37.934;2023-07-31T11:33:40;99402.00;;;24.35;51.38
77869;BME280;67231;59.144;37.934;2023-07-31T11:36:06;99398.72;;;24.33;52.09
77869;BME280;67231;59.144;37.934;2023-07-31T11:38:33;99395.47;;;24.36;51.98
77869;BME280;67231;59.144;37.934;2023-07-31T11:41:02;99397.66;;;24.40;51.59
77869;BME280;67231;59.144;37.934;2023-07-31T11:43:30;99399.31;;;24.41;51.81
77869;BME280;67231;59.144;37.934;2023-07-31T11:45:59;99392.25;;;24.40;51.70
77869;BME280;67231;59.144;37.934;2023-07-31T11:48:32;99391.72;;;24.43;51.71
77869;BME280;67231;59.144;37.934;2023-07-31T11:51:02;99396.94;;;24.49;51.30
77869;BME280;67231;59.144;37.934;2023-07-31T11:53:37;99396.13;;;24.49;51.32
77869;BME280;67231;59.144;37.934;2023-07-31T11:56:05;99402.09;;;24.51;51.54
77869;BME280;67231;59.144;37.934;2023-07-31T11:58:34;99397.25;;;24.53;51.47
77869;BME280;67231;59.144;37.934;2023-07-31T12:01:01;99400.84;;;24.59;51.83
77869;BME280;67231;59.144;37.934;2023-07-31T12:03:28;99395.69;;;24.62;51.32
77869;BME280;67231;59.144;37.934;2023-07-31T12:05:55;99402.09;;;24.51;51.64
77869;BME280;67231;59.144;37.934;2023-07-31T12:08:23;99403.72;;;24.47;52.09
77869;BME280;67231;59.144;37.934;2023-07-31T12:10:54;99398.28;;;24.47;52.33
77869;BME280;67231;59.144;37.934;2023-07-31T12:13:25;99404.53;;;24.47;52.63
77869;BME280;67231;59.144;37.934;2023-07-31T12:15:58;99400.19;;;24.46;52.13
77869;BME280;67231;59.144;37.934;2023-07-31T12:18:27;99402.19;;;24.56;52.32
77869;BME280;67231;59.144;37.934;2023-07-31T12:20:59;99403.47;;;24.53;51.94
77869;BME280;67231;59.144;37.934;2023-07-31T12:23:31;99405.94;;;24.55;51.85
77869;BME280;67231;59.144;37.934;2023-07-31T12:26:10;99394.09;;;24.61;51.84
77869;BME280;67231;59.144;37.934;2023-07-31T12:28:43;99401.72;;;24.69;51.58
77869;BME280;67231;59.144;37.934;2023-07-31T12:31:21;99394.78;;;24.84;51.29
77869;BME280;67231;59.144;37.934;2023-07-31T12:33:50;99403.59;;;25.12;50.18
77869;BME280;67231;59.144;37.934;2023-07-31T12:36:20;99402.22;;;25.04;50.01
77869;BME280;67231;59.144;37.934;2023-07-31T12:38:47;99402.44;;;24.97;49.91
77869;BME280;67231;59.144;37.934;2023-07-31T12:41:13;99398.06;;;24.91;49.54
77869;BME280;67231;59.144;37.934;2023-07-31T12:43:41;99393.97;;;24.83;50.15
77869;BME280;67231;59.144;37.934;2023-07-31T12:46:08;99397.44;;;24.74;50.67
77869;BME280;67231;59.144;37.934;2023-07-31T12:48:36;99408.50;;;24.67;51.07
77869;BME280;67231;59.144;37.934;2023-07-31T12:51:02;99398.06;;;24.53;51.13
77869;BME280;67231;59.144;37.934;2023-07-31T12:53:29;99409.72;;;24.54;50.98
77869;BME280;67231;59.144;37.934;2023-07-31T12:55:56;99405.94;;;24.55;52.00